sensor_id;sensor_type;location;lat;lon;timestamp;P1;durP1;ratioP1;P2;durP2;ratioP2
43650;SDS011;29247;50.944;5.382;2023-08-08T00:00:19;5.95;;;1.60;;
43650;SDS011;29247;50.944;5.382;2023-08-08T00:02:45;2.03;;;1.35;;
43650;SDS011;29247;50.944;5.382;2023-08-08T00:05:14;3.72;;;1.58;;
43650;SDS011;29247;50.944;5.382;2023-08-08T00:07:42;4.68;;;1.80;;
43650;SDS011;29247;50.944;5.382;2023-08-08T00:10:08;4.35;;;1.90;;
43650;SDS011;29247;50.944;5.382;2023-08-08T00:12:34;2.13;;;1.40;;
43650;SDS011;29247;50.944;5.382;2023-08-08T00:14:59;4.57;;;1.52;;
43650;SDS011;29247;50.944;5.382;2023-08-08T00:17:25;5.03;;;1.63;;
43650;SDS011;29247;50.944;5.382;2023-08-08T00:19:51;3.03;;;1.17;;
43650;SDS011;29247;50.944;5.382;2023-08-08T00:22:19;3.97;;;1.50;;
43650;SDS011;29247;50.944;5.382;2023-08-08T00:24:47;2.90;;;1.55;;
43650;SDS011;29247;50.944;5.382;2023-08-08T00:27:12;2.13;;;1.60;;
43650;SDS011;29247;50.944;5.382;2023-08-08T00:29:40;2.22;;;1.60;;
43650;SDS011;29247;50.944;5.382;2023-08-08T00:32:08;5.00;;;1.30;;
43650;SDS011;29247;50.944;5.382;2023-08-08T00:34:34;4.75;;;1.42;;
43650;SDS011;29247;50.944;5.382;2023-08-08T00:36:59;3.35;;;1.70;;
43650;SDS011;29247;50.944;5.382;2023-08-08T00:39:29;3.08;;;1.52;;
43650;SDS011;29247;50.944;5.382;2023-08-08T00:41:57;1.73;;;1.33;;
43650;SDS011;29247;50.944;5.382;2023-08-08T00:44:23;3.28;;;1.25;;
43650;SDS011;29247;50.944;5.382;2023-08-08T00:46:48;2.80;;;1.20;;
43650;SDS011;29247;50.944;5.382;2023-08-08T00:49:14;2.88;;;1.30;;
43650;SDS011;29247;50.944;5.382;2023-08-08T00:51:40;4.38;;;1.27;;
43650;SDS011;29247;50.944;5.382;2023-08-08T00:54:06;1.95;;;1.33;;
43650;SDS011;29247;50.944;5.382;2023-08-08T00:56:35;4.20;;;1.42;;
43650;SDS011;29247;50.944;5.382;2023-08-08T00:59:01;2.63;;;1.10;;
43650;SDS011;29247;50.944;5.382;2023-08-08T01:01:27;3.97;;;1.55;;
43650;SDS011;29247;50.944;5.382;2023-08-08T01:03:53;3.70;;;1.20;;
43650;SDS011;29247;50.944;5.382;2023-08-08T01:09:00;2.05;;;1.20;;
43650;SDS011;29247;50.944;5.382;2023-08-08T01:11:32;1.70;;;1.30;;
43650;SDS011;29247;50.944;5.382;2023-08-08T01:14:00;4.72;;;1.35;;
43650;SDS011;29247;50.944;5.382;2023-08-08T01:16:27;1.70;;;1.20;;
43650;SDS011;29247;50.944;5.382;2023-08-08T01:18:53;5.18;;;1.38;;
43650;SDS011;29247;50.944;5.382;2023-08-08T01:21:25;3.92;;;1.30;;
43650;SDS011;29247;50.944;5.382;2023-08-08T01:23:53;2.50;;;1.25;;
43650;SDS011;29247;50.944;5.382;2023-08-08T01:26:30;2.80;;;1.13;;
43650;SDS011;29247;50.944;5.382;2023-08-08T01:28:57;3.53;;;1.30;;
43650;SDS011;29247;50.944;5.382;2023-08-08T01:31:24;6.35;;;1.20;;
43650;SDS011;29247;50.944;5.382;2023-08-08T01:33:50;2.95;;;1.42;;
43650;SDS011;29247;50.944;5.382;2023-08-08T01:36:26;5.30;;;1.27;;
43650;SDS011;29247;50.944;5.382;2023-08-08T01:38:57;3.75;;;1.63;;
43650;SDS011;29247;50.944;5.382;2023-08-08T01:41:29;2.88;;;1.30;;
43650;SDS011;29247;50.944;5.382;2023-08-08T01:43:57;5.32;;;1.80;;
43650;SDS011;29247;50.944;5.382;2023-08-08T01:46:24;4.18;;;1.55;;
43650;SDS011;29247;50.944;5.382;2023-08-08T01:48:50;2.10;;;1.40;;
43650;SDS011;29247;50.944;5.382;2023-08-08T01:51:16;7.82;;;1.40;;
43650;SDS011;29247;50.944;5.382;2023-08-08T01:53:44;8.32;;;1.67;;
43650;SDS011;29247;50.944;5.382;2023-08-08T01:56:12;3.17;;;1.63;;
43650;SDS011;29247;50.944;5.382;2023-08-08T01:58:40;3.78;;;1.45;;
43650;SDS011;29247;50.944;5.382;2023-08-08T02:01:05;2.30;;;1.40;;
43650;SDS011;29247;50.944;5.382;2023-08-08T02:03:31;4.80;;;1.58;;
43650;SDS011;29247;50.944;5.382;2023-08-08T02:05:57;6.47;;;1.63;;
43650;SDS011;29247;50.944;5.382;2023-08-08T02:08:24;1.55;;;1.45;;
43650;SDS011;29247;50.944;5.382;2023-08-08T02:10:55;3.40;;;1.40;;
43650;SDS011;29247;50.944;5.382;2023-08-08T02:13:25;2.88;;;1.35;;
43650;SDS011;29247;50.944;5.382;2023-08-08T02:15:53;4.22;;;1.52;;
43650;SDS011;29247;50.944;5.382;2023-08-08T02:18:19;4.43;;;1.50;;
43650;SDS011;29247;50.944;5.382;2023-08-08T02:20:44;4.10;;;1.48;;
43650;SDS011;29247;50.944;5.382;2023-08-08T02:23:10;3.70;;;1.70;;
43650;SDS011;29247;50.944;5.382;2023-08-08T02:25:36;4.45;;;1.75;;
43650;SDS011;29247;50.944;5.382;2023-08-08T02:28:04;3.42;;;1.45;;
43650;SDS011;29247;50.944;5.382;2023-08-08T02:30:30;7.97;;;1.80;;
43650;SDS011;29247;50.944;5.382;2023-08-08T02:32:58;7.45;;;1.88;;
43650;SDS011;29247;50.944;5.382;2023-08-08T02:35:23;4.95;;;1.63;;
43650;SDS011;29247;50.944;5.382;2023-08-08T02:37:49;5.60;;;1.70;;
43650;SDS011;29247;50.944;5.382;2023-08-08T02:40:15;3.95;;;1.45;;
43650;SDS011;29247;50.944;5.382;2023-08-08T02:42:42;3.90;;;1.73;;
43650;SDS011;29247;50.944;5.382;2023-08-08T02:45:11;1.75;;;1.20;;
43650;SDS011;29247;50.944;5.382;2023-08-08T02:47:38;4.57;;;1.73;;
43650;SDS011;29247;50.944;5.382;2023-08-08T02:50:04;3.17;;;1.90;;
43650;SDS011;29247;50.944;5.382;2023-08-08T02:52:33;2.83;;;1.58;;
43650;SDS011;29247;50.944;5.382;2023-08-08T02:55:00;7.22;;;2.22;;
43650;SDS011;29247;50.944;5.382;2023-08-08T02:57:27;2.35;;;1.60;;
43650;SDS011;29247;50.944;5.382;2023-08-08T02:59:55;6.38;;;2.10;;
43650;SDS011;29247;50.944;5.382;2023-08-08T03:02:25;6.78;;;1.65;;
43650;SDS011;29247;50.944;5.382;2023-08-08T03:04:53;7.28;;;1.90;;
43650;SDS011;29247;50.944;5.382;2023-08-08T03:07:19;3.10;;;1.52;;
43650;SDS011;29247;50.944;5.382;2023-08-08T03:09:45;4.55;;;2.22;;
43650;SDS011;29247;50.944;5.382;2023-08-08T03:12:10;2.97;;;1.58;;
43650;SDS011;29247;50.944;5.382;2023-08-08T03:14:36;6.95;;;1.90;;
43650;SDS011;29247;50.944;5.382;2023-08-08T03:17:01;5.80;;;1.92;;
43650;SDS011;29247;50.944;5.382;2023-08-08T03:19:27;4.30;;;1.45;;
43650;SDS011;29247;50.944;5.382;2023-08-08T03:21:55;2.80;;;1.60;;
43650;SDS011;29247;50.944;5.382;2023-08-08T03:24:21;6.22;;;2.00;;
43650;SDS011;29247;50.944;5.382;2023-08-08T03:26:47;6.25;;;1.98;;
43650;SDS011;29247;50.944;5.382;2023-08-08T03:29:12;5.45;;;1.73;;
43650;SDS011;29247;50.944;5.382;2023-08-08T03:31:38;4.55;;;1.60;;
43650;SDS011;29247;50.944;5.382;2023-08-08T03:34:04;7.38;;;1.63;;
43650;SDS011;29247;50.944;5.382;2023-08-08T03:36:29;2.35;;;1.83;;
43650;SDS011;29247;50.944;5.382;2023-08-08T03:38:55;5.38;;;1.80;;
43650;SDS011;29247;50.944;5.382;2023-08-08T03:41:21;7.32;;;1.92;;
43650;SDS011;29247;50.944;5.382;2023-08-08T03:43:46;3.28;;;1.88;;
43650;SDS011;29247;50.944;5.382;2023-08-08T03:46:14;2.97;;;1.80;;
43650;SDS011;29247;50.944;5.382;2023-08-08T03:48:40;5.80;;;2.17;;
43650;SDS011;29247;50.944;5.382;2023-08-08T03:51:06;5.28;;;1.92;;
43650;SDS011;29247;50.944;5.382;2023-08-08T03:53:34;3.47;;;1.48;;
43650;SDS011;29247;50.944;5.382;2023-08-08T03:56:02;4.38;;;1.70;;
43650;SDS011;29247;50.944;5.382;2023-08-08T03:58:28;4.20;;;2.42;;
43650;SDS011;29247;50.944;5.382;2023-08-08T04:00:53;3.75;;;1.70;;
43650;SDS011;29247;50.944;5.382;2023-08-08T04:03:21;7.57;;;1.60;;
43650;SDS011;29247;50.944;5.382;2023-08-08T04:05:47;5.53;;;1.55;;
43650;SDS011;29247;50.944;5.382;2023-08-08T04:08:13;8.40;;;2.10;;
43650;SDS011;29247;50.944;5.382;2023-08-08T04:10:39;6.47;;;1.83;;
43650;SDS011;29247;50.944;5.382;2023-08-08T04:13:05;6.43;;;1.83;;
43650;SDS011;29247;50.944;5.382;2023-08-08T04:15:31;7.22;;;2.28;;
43650;SDS011;29247;50.944;5.382;2023-08-08T04:17:56;4.35;;;1.73;;
43650;SDS011;29247;50.944;5.382;2023-08-08T04:20:22;4.95;;;1.67;;
43650;SDS011;29247;50.944;5.382;2023-08-08T04:22:48;5.50;;;1.73;;
43650;SDS011;29247;50.944;5.382;2023-08-08T04:25:14;4.82;;;2.00;;
43650;SDS011;29247;50.944;5.382;2023-08-08T04:27:40;4.60;;;1.90;;
43650;SDS011;29247;50.944;5.382;2023-08-08T04:30:06;8.43;;;2.35;;
43650;SDS011;29247;50.944;5.382;2023-08-08T04:32:32;5.53;;;2.60;;
43650;SDS011;29247;50.944;5.382;2023-08-08T04:34:58;6.47;;;1.90;;
43650;SDS011;29247;50.944;5.382;2023-08-08T04:37:23;4.82;;;1.70;;
43650;SDS011;29247;50.944;5.382;2023-08-08T04:39:49;5.30;;;1.50;;
43650;SDS011;29247;50.944;5.382;2023-08-08T04:42:19;4.07;;;1.85;;
43650;SDS011;29247;50.944;5.382;2023-08-08T04:44:48;5.55;;;1.60;;
43650;SDS011;29247;50.944;5.382;2023-08-08T04:47:13;4.60;;;1.60;;
43650;SDS011;29247;50.944;5.382;2023-08-08T04:49:39;6.55;;;2.22;;
43650;SDS011;29247;50.944;5.382;2023-08-08T04:52:04;6.28;;;1.65;;
43650;SDS011;29247;50.944;5.382;2023-08-08T04:54:33;4.25;;;1.85;;
43650;SDS011;29247;50.944;5.382;2023-08-08T04:57:01;6.95;;;2.10;;
43650;SDS011;29247;50.944;5.382;2023-08-08T04:59:26;4.60;;;1.95;;
43650;SDS011;29247;50.944;5.382;2023-08-08T05:01:52;5.28;;;1.90;;
43650;SDS011;29247;50.944;5.382;2023-08-08T05:04:18;4.72;;;1.90;;
43650;SDS011;29247;50.944;5.382;2023-08-08T05:06:43;8.13;;;1.95;;
43650;SDS011;29247;50.944;5.382;2023-08-08T05:09:09;6.25;;;1.90;;
43650;SDS011;29247;50.944;5.382;2023-08-08T05:11:35;3.88;;;1.83;;
43650;SDS011;29247;50.944;5.382;2023-08-08T05:14:01;6.80;;;2.83;;
43650;SDS011;29247;50.944;5.382;2023-08-08T05:16:27;6.68;;;2.10;;
43650;SDS011;29247;50.944;5.382;2023-08-08T05:18:53;7.68;;;2.42;;
43650;SDS011;29247;50.944;5.382;2023-08-08T05:21:19;5.05;;;2.42;;
43650;SDS011;29247;50.944;5.382;2023-08-08T05:23:47;8.57;;;2.45;;
43650;SDS011;29247;50.944;5.382;2023-08-08T05:26:13;8.38;;;2.88;;
43650;SDS011;29247;50.944;5.382;2023-08-08T05:28:42;5.32;;;2.15;;
43650;SDS011;29247;50.944;5.382;2023-08-08T05:31:08;5.53;;;3.03;;
43650;SDS011;29247;50.944;5.382;2023-08-08T05:33:34;6.20;;;2.20;;
43650;SDS011;29247;50.944;5.382;2023-08-08T05:35:59;8.43;;;2.70;;
43650;SDS011;29247;50.944;5.382;2023-08-08T05:38:25;7.32;;;2.97;;
43650;SDS011;29247;50.944;5.382;2023-08-08T05:40:51;6.32;;;3.08;;
43650;SDS011;29247;50.944;5.382;2023-08-08T05:43:18;7.32;;;2.20;;
43650;SDS011;29247;50.944;5.382;2023-08-08T05:45:46;4.82;;;2.35;;
43650;SDS011;29247;50.944;5.382;2023-08-08T05:48:12;10.15;;;2.20;;
43650;SDS011;29247;50.944;5.382;2023-08-08T05:50:41;7.93;;;2.03;;
43650;SDS011;29247;50.944;5.382;2023-08-08T05:53:07;3.85;;;2.28;;
43650;SDS011;29247;50.944;5.382;2023-08-08T05:55:34;6.82;;;2.63;;
43650;SDS011;29247;50.944;5.382;2023-08-08T05:58:00;10.02;;;3.15;;
43650;SDS011;29247;50.944;5.382;2023-08-08T06:00:26;5.70;;;2.28;;
43650;SDS011;29247;50.944;5.382;2023-08-08T06:02:53;4.57;;;2.30;;
43650;SDS011;29247;50.944;5.382;2023-08-08T06:05:21;6.15;;;2.08;;
43650;SDS011;29247;50.944;5.382;2023-08-08T06:07:49;6.80;;;3.67;;
43650;SDS011;29247;50.944;5.382;2023-08-08T06:10:15;7.03;;;2.20;;
43650;SDS011;29247;50.944;5.382;2023-08-08T06:12:43;7.20;;;2.63;;
43650;SDS011;29247;50.944;5.382;2023-08-08T06:15:09;5.57;;;2.03;;
43650;SDS011;29247;50.944;5.382;2023-08-08T06:17:34;5.85;;;1.90;;
43650;SDS011;29247;50.944;5.382;2023-08-08T06:20:00;8.13;;;2.65;;
43650;SDS011;29247;50.944;5.382;2023-08-08T06:22:26;7.68;;;2.53;;
43650;SDS011;29247;50.944;5.382;2023-08-08T06:24:54;6.45;;;2.78;;
43650;SDS011;29247;50.944;5.382;2023-08-08T06:27:19;7.60;;;2.42;;
43650;SDS011;29247;50.944;5.382;2023-08-08T06:29:45;8.98;;;2.97;;
43650;SDS011;29247;50.944;5.382;2023-08-08T06:32:11;9.75;;;2.50;;
43650;SDS011;29247;50.944;5.382;2023-08-08T06:34:36;5.20;;;2.33;;
43650;SDS011;29247;50.944;5.382;2023-08-08T06:37:04;7.28;;;2.42;;
43650;SDS011;29247;50.944;5.382;2023-08-08T06:39:32;7.40;;;2.33;;
43650;SDS011;29247;50.944;5.382;2023-08-08T06:44:28;6.60;;;2.30;;
43650;SDS011;29247;50.944;5.382;2023-08-08T06:46:54;9.25;;;2.30;;
43650;SDS011;29247;50.944;5.382;2023-08-08T06:49:19;12.02;;;2.80;;
43650;SDS011;29247;50.944;5.382;2023-08-08T06:51:47;6.05;;;2.47;;
43650;SDS011;29247;50.944;5.382;2023-08-08T06:54:16;7.72;;;2.10;;
43650;SDS011;29247;50.944;5.382;2023-08-08T06:56:41;5.43;;;2.30;;
43650;SDS011;29247;50.944;5.382;2023-08-08T06:59:07;3.45;;;2.15;;
43650;SDS011;29247;50.944;5.382;2023-08-08T07:01:34;8.52;;;2.20;;
43650;SDS011;29247;50.944;5.382;2023-08-08T07:04:02;5.60;;;2.40;;
43650;SDS011;29247;50.944;5.382;2023-08-08T07:06:28;11.45;;;3.17;;
43650;SDS011;29247;50.944;5.382;2023-08-08T07:08:54;5.45;;;2.95;;
43650;SDS011;29247;50.944;5.382;2023-08-08T07:11:24;6.57;;;2.38;;
43650;SDS011;29247;50.944;5.382;2023-08-08T07:13:50;10.90;;;2.90;;
43650;SDS011;29247;50.944;5.382;2023-08-08T07:16:17;3.15;;;1.67;;
43650;SDS011;29247;50.944;5.382;2023-08-08T07:18:43;5.20;;;2.47;;
43650;SDS011;29247;50.944;5.382;2023-08-08T07:21:09;6.15;;;1.52;;
43650;SDS011;29247;50.944;5.382;2023-08-08T07:23:34;5.88;;;2.20;;
43650;SDS011;29247;50.944;5.382;2023-08-08T07:26:03;5.85;;;2.28;;
43650;SDS011;29247;50.944;5.382;2023-08-08T07:28:28;5.20;;;2.30;;
43650;SDS011;29247;50.944;5.382;2023-08-08T07:30:54;6.30;;;2.58;;
43650;SDS011;29247;50.944;5.382;2023-08-08T07:33:19;8.77;;;2.40;;
43650;SDS011;29247;50.944;5.382;2023-08-08T07:35:45;7.50;;;3.00;;
43650;SDS011;29247;50.944;5.382;2023-08-08T07:38:13;7.97;;;2.60;;
43650;SDS011;29247;50.944;5.382;2023-08-08T07:40:39;6.75;;;2.63;;
43650;SDS011;29247;50.944;5.382;2023-08-08T07:43:06;6.03;;;2.38;;
43650;SDS011;29247;50.944;5.382;2023-08-08T07:45:31;5.32;;;2.55;;
43650;SDS011;29247;50.944;5.382;2023-08-08T07:47:59;4.22;;;2.08;;
43650;SDS011;29247;50.944;5.382;2023-08-08T07:50:25;3.88;;;2.28;;
43650;SDS011;29247;50.944;5.382;2023-08-08T07:52:51;7.75;;;2.38;;
43650;SDS011;29247;50.944;5.382;2023-08-08T07:55:16;3.58;;;2.22;;
43650;SDS011;29247;50.944;5.382;2023-08-08T07:57:45;7.75;;;2.35;;
43650;SDS011;29247;50.944;5.382;2023-08-08T08:00:13;7.78;;;2.50;;
43650;SDS011;29247;50.944;5.382;2023-08-08T08:02:40;6.03;;;2.58;;
43650;SDS011;29247;50.944;5.382;2023-08-08T08:05:09;5.72;;;2.20;;
43650;SDS011;29247;50.944;5.382;2023-08-08T08:07:35;4.55;;;2.35;;
43650;SDS011;29247;50.944;5.382;2023-08-08T08:10:08;4.55;;;2.10;;
43650;SDS011;29247;50.944;5.382;2023-08-08T08:12:35;5.55;;;2.33;;
43650;SDS011;29247;50.944;5.382;2023-08-08T08:15:03;5.18;;;1.70;;
43650;SDS011;29247;50.944;5.382;2023-08-08T08:17:29;5.65;;;2.55;;
43650;SDS011;29247;50.944;5.382;2023-08-08T08:19:55;6.65;;;2.10;;
43650;SDS011;29247;50.944;5.382;2023-08-08T08:22:20;5.13;;;1.80;;
43650;SDS011;29247;50.944;5.382;2023-08-08T08:24:46;6.82;;;2.10;;
43650;SDS011;29247;50.944;5.382;2023-08-08T08:27:12;3.60;;;1.90;;
43650;SDS011;29247;50.944;5.382;2023-08-08T08:29:38;5.45;;;2.00;;
43650;SDS011;29247;50.944;5.382;2023-08-08T08:32:06;4.13;;;1.80;;
43650;SDS011;29247;50.944;5.382;2023-08-08T08:34:32;6.25;;;2.05;;
43650;SDS011;29247;50.944;5.382;2023-08-08T08:36:58;5.57;;;1.98;;
43650;SDS011;29247;50.944;5.382;2023-08-08T08:39:24;10.50;;;2.47;;
43650;SDS011;29247;50.944;5.382;2023-08-08T08:41:57;5.47;;;1.92;;
43650;SDS011;29247;50.944;5.382;2023-08-08T08:44:30;5.82;;;2.38;;
43650;SDS011;29247;50.944;5.382;2023-08-08T08:47:01;2.80;;;1.77;;
43650;SDS011;29247;50.944;5.382;2023-08-08T08:49:31;10.30;;;2.20;;
43650;SDS011;29247;50.944;5.382;2023-08-08T08:51:58;3.08;;;1.77;;
43650;SDS011;29247;50.944;5.382;2023-08-08T08:54:26;3.95;;;1.70;;
43650;SDS011;29247;50.944;5.382;2023-08-08T08:56:54;7.03;;;2.00;;
43650;SDS011;29247;50.944;5.382;2023-08-08T08:59:23;4.63;;;1.60;;
43650;SDS011;29247;50.944;5.382;2023-08-08T09:01:50;6.38;;;2.17;;
43650;SDS011;29247;50.944;5.382;2023-08-08T09:04:17;5.57;;;1.80;;
43650;SDS011;29247;50.944;5.382;2023-08-08T09:06:47;7.25;;;1.60;;
43650;SDS011;29247;50.944;5.382;2023-08-08T09:09:14;6.13;;;1.83;;
43650;SDS011;29247;50.944;5.382;2023-08-08T09:11:42;7.55;;;2.05;;
43650;SDS011;29247;50.944;5.382;2023-08-08T09:14:19;4.10;;;2.47;;
43650;SDS011;29247;50.944;5.382;2023-08-08T09:16:47;5.93;;;2.72;;
43650;SDS011;29247;50.944;5.382;2023-08-08T09:19:14;2.78;;;1.80;;
43650;SDS011;29247;50.944;5.382;2023-08-08T09:21:42;5.72;;;2.25;;
43650;SDS011;29247;50.944;5.382;2023-08-08T09:24:11;5.80;;;1.83;;
43650;SDS011;29247;50.944;5.382;2023-08-08T09:26:37;4.35;;;2.20;;
43650;SDS011;29247;50.944;5.382;2023-08-08T09:29:07;2.30;;;1.60;;
43650;SDS011;29247;50.944;5.382;2023-08-08T09:31:34;5.63;;;1.92;;
43650;SDS011;29247;50.944;5.382;2023-08-08T09:34:01;3.90;;;1.83;;
43650;SDS011;29247;50.944;5.382;2023-08-08T09:36:28;3.95;;;3.10;;
43650;SDS011;29247;50.944;5.382;2023-08-08T09:38:54;4.00;;;1.75;;
43650;SDS011;29247;50.944;5.382;2023-08-08T09:41:23;4.80;;;1.70;;
43650;SDS011;29247;50.944;5.382;2023-08-08T09:43:50;8.13;;;1.87;;
43650;SDS011;29247;50.944;5.382;2023-08-08T09:46:21;5.30;;;1.80;;
43650;SDS011;29247;50.944;5.382;2023-08-08T09:48:47;2.92;;;1.83;;
43650;SDS011;29247;50.944;5.382;2023-08-08T09:51:14;5.25;;;1.70;;
43650;SDS011;29247;50.944;5.382;2023-08-08T09:53:43;4.60;;;1.50;;
43650;SDS011;29247;50.944;5.382;2023-08-08T09:56:12;3.13;;;1.95;;
43650;SDS011;29247;50.944;5.382;2023-08-08T09:58:40;2.28;;;1.63;;
43650;SDS011;29247;50.944;5.382;2023-08-08T10:01:07;4.20;;;1.95;;
43650;SDS011;29247;50.944;5.382;2023-08-08T10:03:33;4.22;;;2.67;;
43650;SDS011;29247;50.944;5.382;2023-08-08T10:06:01;4.32;;;1.98;;
43650;SDS011;29247;50.944;5.382;2023-08-08T10:08:27;5.90;;;2.50;;
43650;SDS011;29247;50.944;5.382;2023-08-08T10:13:24;3.03;;;2.00;;
43650;SDS011;29247;50.944;5.382;2023-08-08T10:15:50;4.05;;;1.88;;
43650;SDS011;29247;50.944;5.382;2023-08-08T10:18:17;4.35;;;1.80;;
43650;SDS011;29247;50.944;5.382;2023-08-08T10:20:46;3.13;;;1.90;;
43650;SDS011;29247;50.944;5.382;2023-08-08T10:23:16;6.20;;;2.00;;
43650;SDS011;29247;50.944;5.382;2023-08-08T10:25:48;5.63;;;1.58;;
43650;SDS011;29247;50.944;5.382;2023-08-08T10:28:19;2.53;;;1.60;;
43650;SDS011;29247;50.944;5.382;2023-08-08T10:30:46;6.93;;;1.73;;
43650;SDS011;29247;50.944;5.382;2023-08-08T10:33:20;4.43;;;2.10;;
43650;SDS011;29247;50.944;5.382;2023-08-08T10:36:12;3.17;;;1.83;;
43650;SDS011;29247;50.944;5.382;2023-08-08T10:38:50;8.43;;;2.35;;
43650;SDS011;29247;50.944;5.382;2023-08-08T10:41:20;2.85;;;1.52;;
43650;SDS011;29247;50.944;5.382;2023-08-08T10:43:51;5.00;;;1.73;;
43650;SDS011;29247;50.944;5.382;2023-08-08T10:46:22;7.50;;;1.85;;
43650;SDS011;29247;50.944;5.382;2023-08-08T10:48:56;2.63;;;1.48;;
43650;SDS011;29247;50.944;5.382;2023-08-08T10:51:33;4.22;;;1.30;;
43650;SDS011;29247;50.944;5.382;2023-08-08T10:54:05;7.10;;;2.55;;
43650;SDS011;29247;50.944;5.382;2023-08-08T10:56:31;4.72;;;1.75;;
43650;SDS011;29247;50.944;5.382;2023-08-08T10:58:59;5.40;;;1.77;;
43650;SDS011;29247;50.944;5.382;2023-08-08T11:01:37;3.83;;;1.80;;
43650;SDS011;29247;50.944;5.382;2023-08-08T11:04:03;5.28;;;1.85;;
43650;SDS011;29247;50.944;5.382;2023-08-08T11:06:31;3.42;;;1.50;;
43650;SDS011;29247;50.944;5.382;2023-08-08T11:08:58;7.72;;;2.50;;
43650;SDS011;29247;50.944;5.382;2023-08-08T11:11:27;8.00;;;1.58;;
43650;SDS011;29247;50.944;5.382;2023-08-08T11:14:07;7.57;;;1.70;;
43650;SDS011;29247;50.944;5.382;2023-08-08T11:16:34;3.20;;;1.40;;
43650;SDS011;29247;50.944;5.382;2023-08-08T11:19:00;3.17;;;1.73;;
43650;SDS011;29247;50.944;5.382;2023-08-08T11:21:25;7.72;;;1.55;;
43650;SDS011;29247;50.944;5.382;2023-08-08T11:23:53;4.05;;;1.70;;
43650;SDS011;29247;50.944;5.382;2023-08-08T11:26:22;3.97;;;2.10;;
43650;SDS011;29247;50.944;5.382;2023-08-08T11:28:50;3.85;;;1.48;;
43650;SDS011;29247;50.944;5.382;2023-08-08T11:31:21;5.80;;;1.50;;
43650;SDS011;29247;50.944;5.382;2023-08-08T11:33:48;4.50;;;2.05;;
43650;SDS011;29247;50.944;5.382;2023-08-08T11:36:14;4.47;;;1.70;;
43650;SDS011;29247;50.944;5.382;2023-08-08T11:38:40;2.50;;;1.52;;
43650;SDS011;29247;50.944;5.382;2023-08-08T11:41:08;4.68;;;1.67;;
43650;SDS011;29247;50.944;5.382;2023-08-08T11:43:36;5.15;;;1.20;;
43650;SDS011;29247;50.944;5.382;2023-08-08T11:46:09;3.85;;;1.38;;
43650;SDS011;29247;50.944;5.382;2023-08-08T11:48:40;2.88;;;1.25;;
43650;SDS011;29247;50.944;5.382;2023-08-08T11:51:06;5.90;;;1.90;;
43650;SDS011;29247;50.944;5.382;2023-08-08T11:53:35;2.72;;;1.40;;
43650;SDS011;29247;50.944;5.382;2023-08-08T11:56:01;3.28;;;1.30;;
43650;SDS011;29247;50.944;5.382;2023-08-08T11:58:29;4.13;;;1.52;;
43650;SDS011;29247;50.944;5.382;2023-08-08T12:00:57;4.10;;;1.70;;
43650;SDS011;29247;50.944;5.382;2023-08-08T12:03:25;3.63;;;1.58;;
43650;SDS011;29247;50.944;5.382;2023-08-08T12:05:56;6.97;;;1.75;;
43650;SDS011;29247;50.944;5.382;2023-08-08T12:08:25;3.17;;;1.20;;
43650;SDS011;29247;50.944;5.382;2023-08-08T12:11:00;6.30;;;1.50;;
43650;SDS011;29247;50.944;5.382;2023-08-08T12:13:26;5.22;;;1.40;;
43650;SDS011;29247;50.944;5.382;2023-08-08T12:15:55;3.72;;;1.50;;
43650;SDS011;29247;50.944;5.382;2023-08-08T12:18:23;4.45;;;1.60;;
43650;SDS011;29247;50.944;5.382;2023-08-08T12:20:49;3.85;;;2.50;;
43650;SDS011;29247;50.944;5.382;2023-08-08T12:23:15;4.22;;;1.20;;
43650;SDS011;29247;50.944;5.382;2023-08-08T12:25:43;6.30;;;1.65;;
43650;SDS011;29247;50.944;5.382;2023-08-08T12:28:08;4.65;;;1.10;;
43650;SDS011;29247;50.944;5.382;2023-08-08T12:30:34;1.70;;;1.40;;
43650;SDS011;29247;50.944;5.382;2023-08-08T12:33:00;4.55;;;1.42;;
43650;SDS011;29247;50.944;5.382;2023-08-08T12:35:28;3.63;;;1.30;;
43650;SDS011;29247;50.944;5.382;2023-08-08T12:37:54;2.38;;;1.20;;
43650;SDS011;29247;50.944;5.382;2023-08-08T12:40:22;6.43;;;1.50;;
43650;SDS011;29247;50.944;5.382;2023-08-08T12:42:50;2.88;;;1.30;;
43650;SDS011;29247;50.944;5.382;2023-08-08T12:45:16;2.97;;;1.20;;
43650;SDS011;29247;50.944;5.382;2023-08-08T12:47:43;3.22;;;1.70;;
43650;SDS011;29247;50.944;5.382;2023-08-08T12:50:09;3.08;;;1.40;;
43650;SDS011;29247;50.944;5.382;2023-08-08T12:52:35;2.72;;;1.40;;
43650;SDS011;29247;50.944;5.382;2023-08-08T12:55:01;4.38;;;1.15;;
43650;SDS011;29247;50.944;5.382;2023-08-08T12:57:28;3.22;;;1.08;;
43650;SDS011;29247;50.944;5.382;2023-08-08T12:59:53;4.13;;;1.25;;
43650;SDS011;29247;50.944;5.382;2023-08-08T13:02:19;2.80;;;1.20;;
43650;SDS011;29247;50.944;5.382;2023-08-08T13:04:45;3.42;;;1.08;;
43650;SDS011;29247;50.944;5.382;2023-08-08T13:07:11;1.70;;;1.10;;
43650;SDS011;29247;50.944;5.382;2023-08-08T13:09:37;1.98;;;1.10;;
43650;SDS011;29247;50.944;5.382;2023-08-08T13:12:06;1.20;;;0.80;;
43650;SDS011;29247;50.944;5.382;2023-08-08T13:14:32;2.20;;;1.15;;
43650;SDS011;29247;50.944;5.382;2023-08-08T13:16:58;2.03;;;1.17;;
43650;SDS011;29247;50.944;5.382;2023-08-08T13:19:24;3.00;;;1.10;;
43650;SDS011;29247;50.944;5.382;2023-08-08T13:21:52;2.05;;;1.20;;
43650;SDS011;29247;50.944;5.382;2023-08-08T13:24:23;1.88;;;0.90;;
43650;SDS011;29247;50.944;5.382;2023-08-08T13:26:54;2.20;;;1.02;;
43650;SDS011;29247;50.944;5.382;2023-08-08T13:29:20;2.45;;;1.20;;
43650;SDS011;29247;50.944;5.382;2023-08-08T13:31:48;2.58;;;1.00;;
43650;SDS011;29247;50.944;5.382;2023-08-08T13:34:13;1.10;;;0.88;;
43650;SDS011;29247;50.944;5.382;2023-08-08T13:36:39;3.42;;;1.00;;
43650;SDS011;29247;50.944;5.382;2023-08-08T13:39:05;3.25;;;1.10;;
43650;SDS011;29247;50.944;5.382;2023-08-08T13:41:34;1.98;;;1.10;;
43650;SDS011;29247;50.944;5.382;2023-08-08T13:44:00;1.42;;;0.85;;
43650;SDS011;29247;50.944;5.382;2023-08-08T13:46:25;2.00;;;0.98;;
43650;SDS011;29247;50.944;5.382;2023-08-08T13:48:51;1.83;;;1.00;;
43650;SDS011;29247;50.944;5.382;2023-08-08T13:51:17;3.30;;;1.10;;
43650;SDS011;29247;50.944;5.382;2023-08-08T13:53:44;2.15;;;1.17;;
43650;SDS011;29247;50.944;5.382;2023-08-08T13:56:10;2.00;;;1.20;;
43650;SDS011;29247;50.944;5.382;2023-08-08T13:58:36;2.08;;;1.10;;
43650;SDS011;29247;50.944;5.382;2023-08-08T14:01:04;2.10;;;1.00;;
43650;SDS011;29247;50.944;5.382;2023-08-08T14:03:30;2.60;;;0.95;;
43650;SDS011;29247;50.944;5.382;2023-08-08T14:05:58;4.25;;;1.15;;
43650;SDS011;29247;50.944;5.382;2023-08-08T14:08:24;4.65;;;1.10;;
43650;SDS011;29247;50.944;5.382;2023-08-08T14:10:50;1.50;;;1.00;;
43650;SDS011;29247;50.944;5.382;2023-08-08T14:13:18;3.08;;;1.10;;
43650;SDS011;29247;50.944;5.382;2023-08-08T14:15:44;1.08;;;0.88;;
43650;SDS011;29247;50.944;5.382;2023-08-08T14:18:10;3.65;;;1.00;;
43650;SDS011;29247;50.944;5.382;2023-08-08T14:20:36;3.88;;;1.20;;
43650;SDS011;29247;50.944;5.382;2023-08-08T14:23:02;2.72;;;0.80;;
43650;SDS011;29247;50.944;5.382;2023-08-08T14:25:32;1.85;;;0.80;;
43650;SDS011;29247;50.944;5.382;2023-08-08T14:28:00;1.75;;;0.90;;
43650;SDS011;29247;50.944;5.382;2023-08-08T14:30:27;1.90;;;0.82;;
43650;SDS011;29247;50.944;5.382;2023-08-08T14:32:53;1.10;;;1.00;;
43650;SDS011;29247;50.944;5.382;2023-08-08T14:35:19;1.88;;;0.90;;
43650;SDS011;29247;50.944;5.382;2023-08-08T14:37:45;3.20;;;1.02;;
43650;SDS011;29247;50.944;5.382;2023-08-08T14:40:13;2.40;;;1.15;;
43650;SDS011;29247;50.944;5.382;2023-08-08T14:42:38;4.70;;;1.20;;
43650;SDS011;29247;50.944;5.382;2023-08-08T14:45:04;1.25;;;1.00;;
43650;SDS011;29247;50.944;5.382;2023-08-08T14:47:30;1.40;;;1.10;;
43650;SDS011;29247;50.944;5.382;2023-08-08T14:49:59;2.90;;;1.00;;
43650;SDS011;29247;50.944;5.382;2023-08-08T14:52:25;2.97;;;1.00;;
43650;SDS011;29247;50.944;5.382;2023-08-08T14:54:50;2.75;;;1.02;;